sensor_id;sensor_type;location;lat;lon;timestamp;pressure;altitude;pressure_sealevel;temperature;humidity
74915;BME280;63475;45.140;-75.616;2023-12-20T00:00:17;101486.03;;;-6.99;75.44
74915;BME280;63475;45.140;-75.616;2023-12-20T00:02:19;101488.56;;;-7.03;75.34
74915;BME280;63475;45.140;-75.616;2023-12-20T00:04:24;101500.63;;;-7.05;74.99
74915;BME280;63475;45.140;-75.616;2023-12-20T00:06:26;101496.25;;;-7.09;75.93
74915;BME280;63475;45.140;-75.616;2023-12-20T00:08:29;101495.28;;;-7.14;75.74
74915;BME280;63475;45.140;-75.616;2023-12-20T00:10:32;101505.63;;;-7.17;76.44
74915;BME280;63475;45.140;-75.616;2023-12-20T00:12:34;101499.50;;;-7.22;75.90
74915;BME280;63475;45.140;-75.616;2023-12-20T00:14:38;101495.09;;;-7.27;75.58
74915;BME280;63475;45.140;-75.616;2023-12-20T00:16:40;101503.66;;;-7.31;75.71
74915;BME280;63475;45.140;-75.616;2023-12-20T00:18:43;101517.41;;;-7.36;75.92
74915;BME280;63475;45.140;-75.616;2023-12-20T00:20:45;101513.97;;;-7.39;75.97
74915;BME280;63475;45.140;-75.616;2023-12-20T00:22:48;101510.34;;;-7.47;76.07
74915;BME280;63475;45.140;-75.616;2023-12-20T00:24:51;101512.88;;;-7.50;75.60
74915;BME280;63475;45.140;-75.616;2023-12-20T00:26:54;101527.56;;;-7.51;75.80
74915;BME280;63475;45.140;-75.616;2023-12-20T00:28:57;101511.91;;;-7.57;75.84
74915;BME280;63475;45.140;-75.616;2023-12-20T00:31:00;101517.91;;;-7.58;75.79
74915;BME280;63475;45.140;-75.616;2023-12-20T00:33:04;101510.09;;;-7.62;76.53
74915;BME280;63475;45.140;-75.616;2023-12-20T00:35:06;101515.22;;;-7.65;76.21
74915;BME280;63475;45.140;-75.616;2023-12-20T00:37:09;101513.38;;;-7.71;76.43
74915;BME280;63475;45.140;-75.616;2023-12-20T00:39:12;101517.72;;;-7.70;76.73
74915;BME280;63475;45.140;-75.616;2023-12-20T00:41:15;101508.13;;;-7.76;76.46
74915;BME280;63475;45.140;-75.616;2023-12-20T00:43:17;101523.66;;;-7.76;76.35
74915;BME280;63475;45.140;-75.616;2023-12-20T00:45:20;101528.72;;;-7.82;77.38
74915;BME280;63475;45.140;-75.616;2023-12-20T00:47:24;101528.72;;;-7.83;77.01
74915;BME280;63475;45.140;-75.616;2023-12-20T00:49:27;101523.50;;;-7.85;77.52
74915;BME280;63475;45.140;-75.616;2023-12-20T00:51:30;101531.22;;;-7.88;77.42
74915;BME280;63475;45.140;-75.616;2023-12-20T00:53:33;101521.59;;;-7.93;77.57
74915;BME280;63475;45.140;-75.616;2023-12-20T00:55:36;101519.81;;;-7.96;77.25
74915;BME280;63475;45.140;-75.616;2023-12-20T00:57:39;101524.22;;;-7.92;77.56
74915;BME280;63475;45.140;-75.616;2023-12-20T00:59:41;101530.25;;;-7.93;77.75
74915;BME280;63475;45.140;-75.616;2023-12-20T01:01:44;101539.72;;;-7.93;77.56
74915;BME280;63475;45.140;-75.616;2023-12-20T01:03:46;101533.63;;;-7.97;76.96
74915;BME280;63475;45.140;-75.616;2023-12-20T01:05:49;101531.88;;;-7.98;77.56
74915;BME280;63475;45.140;-75.616;2023-12-20T01:07:52;101534.38;;;-8.01;77.04
74915;BME280;63475;45.140;-75.616;2023-12-20T01:09:55;101557.63;;;-8.04;77.42
74915;BME280;63475;45.140;-75.616;2023-12-20T01:12:00;101548.06;;;-8.08;77.22
74915;BME280;63475;45.140;-75.616;2023-12-20T01:14:02;101547.25;;;-8.07;77.77
74915;BME280;63475;45.140;-75.616;2023-12-20T01:16:05;101542.00;;;-8.10;76.82
74915;BME280;63475;45.140;-75.616;2023-12-20T01:18:08;101539.34;;;-8.13;77.25
74915;BME280;63475;45.140;-75.616;2023-12-20T01:20:10;101538.38;;;-8.18;76.76
74915;BME280;63475;45.140;-75.616;2023-12-20T01:22:14;101539.19;;;-8.21;76.77
74915;BME280;63475;45.140;-75.616;2023-12-20T01:24:17;101548.63;;;-8.23;77.54
74915;BME280;63475;45.140;-75.616;2023-12-20T01:26:20;101547.72;;;-8.25;76.97
74915;BME280;63475;45.140;-75.616;2023-12-20T01:28:23;101545.09;;;-8.26;77.36
74915;BME280;63475;45.140;-75.616;2023-12-20T01:30:25;101548.53;;;-8.29;77.64
74915;BME280;63475;45.140;-75.616;2023-12-20T01:32:28;101549.31;;;-8.31;77.73
74915;BME280;63475;45.140;-75.616;2023-12-20T01:34:32;101555.34;;;-8.32;77.96
74915;BME280;63475;45.140;-75.616;2023-12-20T01:36:35;101555.28;;;-8.35;77.79
74915;BME280;63475;45.140;-75.616;2023-12-20T01:38:37;101560.31;;;-8.42;78.90
74915;BME280;63475;45.140;-75.616;2023-12-20T01:40:40;101571.59;;;-8.38;79.19
74915;BME280;63475;45.140;-75.616;2023-12-20T01:42:43;101566.31;;;-8.43;79.25
74915;BME280;63475;45.140;-75.616;2023-12-20T01:44:45;101574.91;;;-8.44;79.20
74915;BME280;63475;45.140;-75.616;2023-12-20T01:46:48;101574.03;;;-8.44;78.88
74915;BME280;63475;45.140;-75.616;2023-12-20T01:48:51;101576.63;;;-8.44;79.60
74915;BME280;63475;45.140;-75.616;2023-12-20T01:50:55;101571.41;;;-8.46;79.06
74915;BME280;63475;45.140;-75.616;2023-12-20T01:53:02;101573.16;;;-8.45;78.96
74915;BME280;63475;45.140;-75.616;2023-12-20T01:55:06;101581.81;;;-8.44;79.40
74915;BME280;63475;45.140;-75.616;2023-12-20T01:57:16;101592.13;;;-8.46;79.31
74915;BME280;63475;45.140;-75.616;2023-12-20T01:59:20;101591.19;;;-8.48;79.09
74915;BME280;63475;45.140;-75.616;2023-12-20T02:01:23;101587.72;;;-8.50;79.85
74915;BME280;63475;45.140;-75.616;2023-12-20T02:03:26;101583.44;;;-8.48;79.73
74915;BME280;63475;45.140;-75.616;2023-12-20T02:05:33;101584.34;;;-8.46;79.77
74915;BME280;63475;45.140;-75.616;2023-12-20T02:07:37;101573.94;;;-8.49;80.00
74915;BME280;63475;45.140;-75.616;2023-12-20T02:09:39;101583.47;;;-8.46;79.72
74915;BME280;63475;45.140;-75.616;2023-12-20T02:11:43;101586.03;;;-8.48;80.11
74915;BME280;63475;45.140;-75.616;2023-12-20T02:13:45;101591.25;;;-8.46;80.04
74915;BME280;63475;45.140;-75.616;2023-12-20T02:15:48;101591.25;;;-8.46;81.01
74915;BME280;63475;45.140;-75.616;2023-12-20T02:17:50;101592.13;;;-8.46;80.88
74915;BME280;63475;45.140;-75.616;2023-12-20T02:19:54;101588.59;;;-8.49;80.60
74915;BME280;63475;45.140;-75.616;2023-12-20T02:22:10;101599.88;;;-8.46;80.57
74915;BME280;63475;45.140;-75.616;2023-12-20T02:24:13;101599.88;;;-8.46;80.37
74915;BME280;63475;45.140;-75.616;2023-12-20T02:26:16;101606.75;;;-8.46;80.96
74915;BME280;63475;45.140;-75.616;2023-12-20T02:28:20;101617.97;;;-8.46;81.30
74915;BME280;63475;45.140;-75.616;2023-12-20T02:30:25;101608.53;;;-8.44;82.17
74915;BME280;63475;45.140;-75.616;2023-12-20T02:32:28;101612.19;;;-8.35;82.76
74915;BME280;63475;45.140;-75.616;2023-12-20T02:34:31;101618.31;;;-8.32;83.00
74915;BME280;63475;45.140;-75.616;2023-12-20T02:36:33;101612.19;;;-8.35;83.17
74915;BME280;63475;45.140;-75.616;2023-12-20T02:38:36;101627.00;;;-8.28;84.23
74915;BME280;63475;45.140;-75.616;2023-12-20T02:40:38;101617.53;;;-8.26;84.64
74915;BME280;63475;45.140;-75.616;2023-12-20T02:42:49;101626.28;;;-8.21;84.03
74915;BME280;63475;45.140;-75.616;2023-12-20T02:44:52;101639.19;;;-8.23;84.84
74915;BME280;63475;45.140;-75.616;2023-12-20T02:46:54;101639.22;;;-8.21;83.07
74915;BME280;63475;45.140;-75.616;2023-12-20T02:48:57;101633.28;;;-8.17;83.67
74915;BME280;63475;45.140;-75.616;2023-12-20T02:50:59;101639.34;;;-8.17;84.04
74915;BME280;63475;45.140;-75.616;2023-12-20T02:53:02;101625.38;;;-8.23;83.72
74915;BME280;63475;45.140;-75.616;2023-12-20T02:55:05;101629.94;;;-8.13;84.07
74915;BME280;63475;45.140;-75.616;2023-12-20T02:57:08;101643.78;;;-8.11;84.64
74915;BME280;63475;45.140;-75.616;2023-12-20T02:59:11;101647.19;;;-8.12;83.61
74915;BME280;63475;45.140;-75.616;2023-12-20T03:01:13;101648.16;;;-8.09;84.64
74915;BME280;63475;45.140;-75.616;2023-12-20T03:03:18;101652.38;;;-8.12;84.32
74915;BME280;63475;45.140;-75.616;2023-12-20T03:05:21;101652.44;;;-8.09;84.37
74915;BME280;63475;45.140;-75.616;2023-12-20T03:07:24;101657.72;;;-8.03;84.44
74915;BME280;63475;45.140;-75.616;2023-12-20T03:09:26;101673.25;;;-8.03;84.42
74915;BME280;63475;45.140;-75.616;2023-12-20T03:11:33;101675.00;;;-8.02;84.42
74915;BME280;63475;45.140;-75.616;2023-12-20T03:13:36;101670.69;;;-8.03;84.76
74915;BME280;63475;45.140;-75.616;2023-12-20T03:15:39;101672.44;;;-8.02;85.03
74915;BME280;63475;45.140;-75.616;2023-12-20T03:17:41;101671.72;;;-7.95;84.89
74915;BME280;63475;45.140;-75.616;2023-12-20T03:19:46;101674.47;;;-7.89;84.27
74915;BME280;63475;45.140;-75.616;2023-12-20T03:21:48;101684.00;;;-7.86;84.52
74915;BME280;63475;45.140;-75.616;2023-12-20T03:23:51;101693.56;;;-7.82;83.88
74915;BME280;63475;45.140;-75.616;2023-12-20T03:25:53;101682.38;;;-7.83;83.66
74915;BME280;63475;45.140;-75.616;2023-12-20T03:27:56;101683.28;;;-7.79;83.79
74915;BME280;63475;45.140;-75.616;2023-12-20T03:29:58;101678.16;;;-7.76;84.10
74915;BME280;63475;45.140;-75.616;2023-12-20T03:32:01;101690.38;;;-7.71;83.56
74915;BME280;63475;45.140;-75.616;2023-12-20T03:34:04;101677.34;;;-7.74;83.53
74915;BME280;63475;45.140;-75.616;2023-12-20T03:36:08;101691.34;;;-7.65;84.51
74915;BME280;63475;45.140;-75.616;2023-12-20T03:38:10;101687.97;;;-7.60;83.93
74915;BME280;63475;45.140;-75.616;2023-12-20T03:40:13;101688.84;;;-7.59;83.87
74915;BME280;63475;45.140;-75.616;2023-12-20T03:42:21;101701.00;;;-7.57;83.25
74915;BME280;63475;45.140;-75.616;2023-12-20T03:44:24;101707.13;;;-7.53;83.82
74915;BME280;63475;45.140;-75.616;2023-12-20T03:46:26;101700.19;;;-7.54;83.05
74915;BME280;63475;45.140;-75.616;2023-12-20T03:48:29;101702.91;;;-7.48;83.12
74915;BME280;63475;45.140;-75.616;2023-12-20T03:50:32;101703.75;;;-7.49;83.28
74915;BME280;63475;45.140;-75.616;2023-12-20T03:52:35;101712.50;;;-7.44;83.13
74915;BME280;63475;45.140;-75.616;2023-12-20T03:54:38;101707.31;;;-7.44;83.00
74915;BME280;63475;45.140;-75.616;2023-12-20T03:56:41;101714.31;;;-7.40;82.87
74915;BME280;63475;45.140;-75.616;2023-12-20T03:58:43;101716.06;;;-7.36;81.64
74915;BME280;63475;45.140;-75.616;2023-12-20T04:00:46;101708.28;;;-7.39;82.18
74915;BME280;63475;45.140;-75.616;2023-12-20T04:02:48;101704.81;;;-7.38;82.04
74915;BME280;63475;45.140;-75.616;2023-12-20T04:04:51;101704.81;;;-7.37;82.56
74915;BME280;63475;45.140;-75.616;2023-12-20T04:06:55;101708.31;;;-7.35;82.20
74915;BME280;63475;45.140;-75.616;2023-12-20T04:08:57;101699.69;;;-7.35;81.47
74915;BME280;63475;45.140;-75.616;2023-12-20T04:11:00;101709.25;;;-7.31;81.89
74915;BME280;63475;45.140;-75.616;2023-12-20T04:13:03;101712.72;;;-7.30;81.68
74915;BME280;63475;45.140;-75.616;2023-12-20T04:15:06;101708.41;;;-7.30;81.25
74915;BME280;63475;45.140;-75.616;2023-12-20T04:17:14;101704.97;;;-7.30;82.14
74915;BME280;63475;45.140;-75.616;2023-12-20T04:19:18;101700.63;;;-7.31;81.40
74915;BME280;63475;45.140;-75.616;2023-12-20T04:21:20;101705.00;;;-7.29;81.61
74915;BME280;63475;45.140;-75.616;2023-12-20T04:23:23;101698.97;;;-7.28;81.85
74915;BME280;63475;45.140;-75.616;2023-12-20T04:25:26;101700.81;;;-7.22;82.22
74915;BME280;63475;45.140;-75.616;2023-12-20T04:27:29;101706.03;;;-7.21;81.33
74915;BME280;63475;45.140;-75.616;2023-12-20T04:29:31;101705.19;;;-7.20;81.99
74915;BME280;63475;45.140;-75.616;2023-12-20T04:31:34;101701.75;;;-7.19;82.75
74915;BME280;63475;45.140;-75.616;2023-12-20T04:33:36;101695.72;;;-7.18;81.21
74915;BME280;63475;45.140;-75.616;2023-12-20T04:35:39;101692.31;;;-7.15;82.33
74915;BME280;63475;45.140;-75.616;2023-12-20T04:37:43;101706.13;;;-7.16;81.99
74915;BME280;63475;45.140;-75.616;2023-12-20T04:39:46;101699.22;;;-7.14;82.29
74915;BME280;63475;45.140;-75.616;2023-12-20T04:41:48;101695.72;;;-7.18;81.91
74915;BME280;63475;45.140;-75.616;2023-12-20T04:43:52;101700.09;;;-7.14;81.96
74915;BME280;63475;45.140;-75.616;2023-12-20T04:45:55;101693.19;;;-7.13;81.02
74915;BME280;63475;45.140;-75.616;2023-12-20T04:47:57;101700.19;;;-7.09;81.93
74915;BME280;63475;45.140;-75.616;2023-12-20T04:50:00;101697.66;;;-7.06;82.30
74915;BME280;63475;45.140;-75.616;2023-12-20T04:52:03;101695.88;;;-7.09;81.05
74915;BME280;63475;45.140;-75.616;2023-12-20T04:54:08;101705.38;;;-7.08;81.10
74915;BME280;63475;45.140;-75.616;2023-12-20T04:56:11;101705.38;;;-7.08;80.46
74915;BME280;63475;45.140;-75.616;2023-12-20T04:58:14;101707.16;;;-7.05;80.75
74915;BME280;63475;45.140;-75.616;2023-12-20T05:00:17;101714.06;;;-7.06;81.77
74915;BME280;63475;45.140;-75.616;2023-12-20T05:02:20;101718.41;;;-7.05;80.86
74915;BME280;63475;45.140;-75.616;2023-12-20T05:04:22;101704.53;;;-7.07;80.71
74915;BME280;63475;45.140;-75.616;2023-12-20T05:06:26;101714.94;;;-7.05;80.29
74915;BME280;63475;45.140;-75.616;2023-12-20T05:08:28;101716.78;;;-6.99;81.22
74915;BME280;63475;45.140;-75.616;2023-12-20T05:10:31;101715.00;;;-7.02;79.92
74915;BME280;63475;45.140;-75.616;2023-12-20T05:12:34;101710.69;;;-7.02;80.76
74915;BME280;63475;45.140;-75.616;2023-12-20T05:14:37;101708.94;;;-7.03;80.72
74915;BME280;63475;45.140;-75.616;2023-12-20T05:16:39;101711.53;;;-7.03;80.61
74915;BME280;63475;45.140;-75.616;2023-12-20T05:18:42;101705.47;;;-7.03;80.42
74915;BME280;63475;45.140;-75.616;2023-12-20T05:20:45;101715.84;;;-7.03;80.60
74915;BME280;63475;45.140;-75.616;2023-12-20T05:22:48;101702.84;;;-7.05;81.06
74915;BME280;63475;45.140;-75.616;2023-12-20T05:24:50;101708.97;;;-7.01;80.70
74915;BME280;63475;45.140;-75.616;2023-12-20T05:26:53;101709.84;;;-7.01;80.90
74915;BME280;63475;45.140;-75.616;2023-12-20T05:28:56;101710.72;;;-7.00;80.46
74915;BME280;63475;45.140;-75.616;2023-12-20T05:30:59;101710.69;;;-7.02;81.67
74915;BME280;63475;45.140;-75.616;2023-12-20T05:33:02;101700.28;;;-7.03;82.30
74915;BME280;63475;45.140;-75.616;2023-12-20T05:35:04;101712.44;;;-7.01;80.93
74915;BME280;63475;45.140;-75.616;2023-12-20T05:37:07;101715.03;;;-7.01;81.74
74915;BME280;63475;45.140;-75.616;2023-12-20T05:39:10;101703.88;;;-6.96;81.09
74915;BME280;63475;45.140;-75.616;2023-12-20T05:41:12;101708.28;;;-6.92;81.80
74915;BME280;63475;45.140;-75.616;2023-12-20T05:43:15;101716.91;;;-6.93;81.65
74915;BME280;63475;45.140;-75.616;2023-12-20T05:45:18;101717.75;;;-6.94;81.41
74915;BME280;63475;45.140;-75.616;2023-12-20T05:47:20;101717.78;;;-6.93;80.68
74915;BME280;63475;45.140;-75.616;2023-12-20T05:49:23;101713.34;;;-6.98;81.61
74915;BME280;63475;45.140;-75.616;2023-12-20T05:51:26;101698.53;;;-7.06;81.71
74915;BME280;63475;45.140;-75.616;2023-12-20T05:53:28;101714.25;;;-6.96;81.48
74915;BME280;63475;45.140;-75.616;2023-12-20T05:55:31;101718.53;;;-6.98;81.19
74915;BME280;63475;45.140;-75.616;2023-12-20T05:57:33;101710.84;;;-6.94;81.28
74915;BME280;63475;45.140;-75.616;2023-12-20T05:59:36;101700.47;;;-6.94;81.71
74915;BME280;63475;45.140;-75.616;2023-12-20T06:01:38;101707.38;;;-6.94;81.30
74915;BME280;63475;45.140;-75.616;2023-12-20T06:03:41;101711.72;;;-6.93;81.36
74915;BME280;63475;45.140;-75.616;2023-12-20T06:05:44;101710.00;;;-6.91;81.07
74915;BME280;63475;45.140;-75.616;2023-12-20T06:07:47;101707.44;;;-6.90;81.48
74915;BME280;63475;45.140;-75.616;2023-12-20T06:09:50;101705.69;;;-6.91;80.96
74915;BME280;63475;45.140;-75.616;2023-12-20T06:11:53;101704.78;;;-6.94;80.74
74915;BME280;63475;45.140;-75.616;2023-12-20T06:13:56;101716.06;;;-6.91;81.87
74915;BME280;63475;45.140;-75.616;2023-12-20T06:15:58;101712.59;;;-6.93;81.30
74915;BME280;63475;45.140;-75.616;2023-12-20T06:18:01;101709.13;;;-6.92;80.75
74915;BME280;63475;45.140;-75.616;2023-12-20T06:20:04;101715.19;;;-6.91;80.56
74915;BME280;63475;45.140;-75.616;2023-12-20T06:22:10;101716.06;;;-6.92;80.91
74915;BME280;63475;45.140;-75.616;2023-12-20T06:24:13;101710.88;;;-6.92;80.49
74915;BME280;63475;45.140;-75.616;2023-12-20T06:26:16;101721.34;;;-6.86;81.10
74915;BME280;63475;45.140;-75.616;2023-12-20T06:28:19;101717.00;;;-6.87;81.19
74915;BME280;63475;45.140;-75.616;2023-12-20T06:30:22;101727.47;;;-6.83;80.48
74915;BME280;63475;45.140;-75.616;2023-12-20T06:32:27;101730.88;;;-6.85;80.68
74915;BME280;63475;45.140;-75.616;2023-12-20T06:34:31;101730.75;;;-6.91;80.89
74915;BME280;63475;45.140;-75.616;2023-12-20T06:36:33;101739.56;;;-6.83;80.84
74915;BME280;63475;45.140;-75.616;2023-12-20T06:38:36;101739.41;;;-6.91;80.89
74915;BME280;63475;45.140;-75.616;2023-12-20T06:40:38;101746.44;;;-6.85;80.43
74915;BME280;63475;45.140;-75.616;2023-12-20T06:42:41;101748.16;;;-6.86;80.85
74915;BME280;63475;45.140;-75.616;2023-12-20T06:44:57;101753.31;;;-6.87;80.55
74915;BME280;63475;45.140;-75.616;2023-12-20T06:47:00;101745.47;;;-6.90;80.18
74915;BME280;63475;45.140;-75.616;2023-12-20T06:49:03;101752.38;;;-6.92;79.88
74915;BME280;63475;45.140;-75.616;2023-12-20T06:51:06;101759.34;;;-6.88;80.42
74915;BME280;63475;45.140;-75.616;2023-12-20T06:53:08;101767.19;;;-6.85;80.62
74915;BME280;63475;45.140;-75.616;2023-12-20T06:55:11;101753.25;;;-6.90;80.44
74915;BME280;63475;45.140;-75.616;2023-12-20T06:57:14;101759.28;;;-6.93;80.59
74915;BME280;63475;45.140;-75.616;2023-12-20T06:59:16;101743.63;;;-6.97;79.93
74915;BME280;63475;45.140;-75.616;2023-12-20T07:01:19;101747.13;;;-6.95;80.11
74915;BME280;63475;45.140;-75.616;2023-12-20T07:03:22;101739.34;;;-6.95;80.05
74915;BME280;63475;45.140;-75.616;2023-12-20T07:05:24;101756.69;;;-6.91;80.14
74915;BME280;63475;45.140;-75.616;2023-12-20T07:07:27;101756.72;;;-6.90;80.75
74915;BME280;63475;45.140;-75.616;2023-12-20T07:09:30;101762.75;;;-6.92;80.51
74915;BME280;63475;45.140;-75.616;2023-12-20T07:11:33;101752.31;;;-6.95;80.05
74915;BME280;63475;45.140;-75.616;2023-12-20T07:13:35;101751.47;;;-6.94;79.88
74915;BME280;63475;45.140;-75.616;2023-12-20T07:15:39;101754.97;;;-6.92;79.36
74915;BME280;63475;45.140;-75.616;2023-12-20T07:17:42;101761.06;;;-6.89;80.70
74915;BME280;63475;45.140;-75.616;2023-12-20T07:19:46;101741.09;;;-6.94;80.23
74915;BME280;63475;45.140;-75.616;2023-12-20T07:21:49;101743.72;;;-6.91;80.53
74915;BME280;63475;45.140;-75.616;2023-12-20T07:23:51;101748.03;;;-6.92;79.98
74915;BME280;63475;45.140;-75.616;2023-12-20T07:25:54;101749.78;;;-6.92;80.85
74915;BME280;63475;45.140;-75.616;2023-12-20T07:27:57;101753.31;;;-6.87;80.78
74915;BME280;63475;45.140;-75.616;2023-12-20T07:29:59;101748.03;;;-6.92;81.16
74915;BME280;63475;45.140;-75.616;2023-12-20T07:32:02;101754.00;;;-6.97;80.85
74915;BME280;63475;45.140;-75.616;2023-12-20T07:34:04;101754.03;;;-6.96;80.96
74915;BME280;63475;45.140;-75.616;2023-12-20T07:36:07;101753.16;;;-6.96;80.63
74915;BME280;63475;45.140;-75.616;2023-12-20T07:38:10;101754.09;;;-6.93;79.94
74915;BME280;63475;45.140;-75.616;2023-12-20T07:40:14;101747.22;;;-6.89;79.30
74915;BME280;63475;45.140;-75.616;2023-12-20T07:42:19;101748.06;;;-6.90;79.48
74915;BME280;63475;45.140;-75.616;2023-12-20T07:44:22;101751.47;;;-6.94;80.54
74915;BME280;63475;45.140;-75.616;2023-12-20T07:46:25;101746.16;;;-7.01;80.71
74915;BME280;63475;45.140;-75.616;2023-12-20T07:48:27;101730.66;;;-6.97;79.37
74915;BME280;63475;45.140;-75.616;2023-12-20T07:50:30;101744.59;;;-6.92;78.56
74915;BME280;63475;45.140;-75.616;2023-12-20T07:52:33;101742.00;;;-6.92;77.89
74915;BME280;63475;45.140;-75.616;2023-12-20T07:54:36;101747.16;;;-6.94;79.16
74915;BME280;63475;45.140;-75.616;2023-12-20T07:56:39;101750.47;;;-7.01;79.90
74915;BME280;63475;45.140;-75.616;2023-12-20T07:58:43;101752.13;;;-7.05;80.42
74915;BME280;63475;45.140;-75.616;2023-12-20T08:00:53;101751.22;;;-7.07;79.92
74915;BME280;63475;45.140;-75.616;2023-12-20T08:02:56;101753.06;;;-7.01;78.48
74915;BME280;63475;45.140;-75.616;2023-12-20T08:04:58;101753.97;;;-6.99;78.20
74915;BME280;63475;45.140;-75.616;2023-12-20T08:07:01;101751.41;;;-6.97;78.73
74915;BME280;63475;45.140;-75.616;2023-12-20T08:09:04;101752.16;;;-7.03;80.84
74915;BME280;63475;45.140;-75.616;2023-12-20T08:11:07;101746.09;;;-7.04;81.18
74915;BME280;63475;45.140;-75.616;2023-12-20T08:13:11;101740.94;;;-7.02;79.62
74915;BME280;63475;45.140;-75.616;2023-12-20T08:15:14;101744.41;;;-7.02;78.36
74915;BME280;63475;45.140;-75.616;2023-12-20T08:17:17;101739.22;;;-7.02;78.08
74915;BME280;63475;45.140;-75.616;2023-12-20T08:19:21;101738.25;;;-7.07;77.69
74915;BME280;63475;45.140;-75.616;2023-12-20T08:21:23;101743.47;;;-7.05;78.51
74915;BME280;63475;45.140;-75.616;2023-12-20T08:23:26;101736.59;;;-7.03;80.29
74915;BME280;63475;45.140;-75.616;2023-12-20T08:25:31;101740.09;;;-7.01;80.29
74915;BME280;63475;45.140;-75.616;2023-12-20T08:27:40;101735.78;;;-7.01;80.23
74915;BME280;63475;45.140;-75.616;2023-12-20T08:29:44;101737.53;;;-6.99;78.79
74915;BME280;63475;45.140;-75.616;2023-12-20T08:31:52;101728.84;;;-7.02;78.24
74915;BME280;63475;45.140;-75.616;2023-12-20T08:33:55;101740.06;;;-7.03;78.70
74915;BME280;63475;45.140;-75.616;2023-12-20T08:35:59;101743.47;;;-7.05;79.59
74915;BME280;63475;45.140;-75.616;2023-12-20T08:38:01;101743.44;;;-7.07;79.66
74915;BME280;63475;45.140;-75.616;2023-12-20T08:40:05;101745.22;;;-7.04;79.03
74915;BME280;63475;45.140;-75.616;2023-12-20T08:42:08;101744.28;;;-7.08;78.45
74915;BME280;63475;45.140;-75.616;2023-12-20T08:44:11;101739.97;;;-7.07;78.68
74915;BME280;63475;45.140;-75.616;2023-12-20T08:46:14;101746.81;;;-7.11;77.88
74915;BME280;63475;45.140;-75.616;2023-12-20T08:48:17;101753.72;;;-7.11;78.43
74915;BME280;63475;45.140;-75.616;2023-12-20T08:50:20;101745.00;;;-7.15;77.89
74915;BME280;63475;45.140;-75.616;2023-12-20T08:52:23;101753.69;;;-7.13;77.83
74915;BME280;63475;45.140;-75.616;2023-12-20T08:54:26;101752.75;;;-7.18;78.36
74915;BME280;63475;45.140;-75.616;2023-12-20T08:56:29;101760.47;;;-7.19;78.09
74915;BME280;63475;45.140;-75.616;2023-12-20T08:58:32;101762.09;;;-7.24;79.01
74915;BME280;63475;45.140;-75.616;2023-12-20T09:00:36;101769.13;;;-7.19;80.48
74915;BME280;63475;45.140;-75.616;2023-12-20T09:02:38;101767.38;;;-7.20;79.78
74915;BME280;63475;45.140;-75.616;2023-12-20T09:04:41;101769.16;;;-7.17;78.34
74915;BME280;63475;45.140;-75.616;2023-12-20T09:06:44;101769.97;;;-7.20;78.03
74915;BME280;63475;45.140;-75.616;2023-12-20T09:08:47;101763.84;;;-7.23;77.07
74915;BME280;63475;45.140;-75.616;2023-12-20T09:10:51;101749.97;;;-7.27;78.00
74915;BME280;63475;45.140;-75.616;2023-12-20T09:12:54;101751.63;;;-7.29;77.66
74915;BME280;63475;45.140;-75.616;2023-12-20T09:14:59;101746.31;;;-7.35;78.27
74915;BME280;63475;45.140;-75.616;2023-12-20T09:17:04;101733.38;;;-7.35;79.39
74915;BME280;63475;45.140;-75.616;2023-12-20T09:19:07;101715.81;;;-7.51;81.64
74915;BME280;63475;45.140;-75.616;2023-12-20T09:21:09;101724.41;;;-7.52;81.34
74915;BME280;63475;45.140;-75.616;2023-12-20T09:23:12;101725.25;;;-7.53;82.09
74915;BME280;63475;45.140;-75.616;2023-12-20T09:25:14;101729.59;;;-7.52;82.29
74915;BME280;63475;45.140;-75.616;2023-12-20T09:27:19;101737.38;;;-7.52;82.26
74915;BME280;63475;45.140;-75.616;2023-12-20T09:29:23;101732.19;;;-7.52;81.97
74915;BME280;63475;45.140;-75.616;2023-12-20T09:31:33;101734.81;;;-7.51;82.08
74915;BME280;63475;45.140;-75.616;2023-12-20T09:33:35;101736.53;;;-7.51;82.56
74915;BME280;63475;45.140;-75.616;2023-12-20T09:35:38;101738.31;;;-7.49;82.45
74915;BME280;63475;45.140;-75.616;2023-12-20T09:37:42;101742.72;;;-7.45;82.73
74915;BME280;63475;45.140;-75.616;2023-12-20T09:39:47;101734.94;;;-7.45;82.94
74915;BME280;63475;45.140;-75.616;2023-12-20T09:42:04;101737.56;;;-7.43;83.40
74915;BME280;63475;45.140;-75.616;2023-12-20T09:44:08;101742.75;;;-7.43;82.86
74915;BME280;63475;45.140;-75.616;2023-12-20T09:46:12;101748.03;;;-7.39;83.25
74915;BME280;63475;45.140;-75.616;2023-12-20T09:48:18;101743.69;;;-7.38;82.71
74915;BME280;63475;45.140;-75.616;2023-12-20T09:50:22;101738.50;;;-7.38;83.13
74915;BME280;63475;45.140;-75.616;2023-12-20T09:52:25;101742.88;;;-7.34;83.25
74915;BME280;63475;45.140;-75.616;2023-12-20T09:54:28;101748.13;;;-7.31;83.34
74915;BME280;63475;45.140;-75.616;2023-12-20T09:56:33;101739.47;;;-7.33;82.80
74915;BME280;63475;45.140;-75.616;2023-12-20T09:58:37;101736.88;;;-7.33;82.16
74915;BME280;63475;45.140;-75.616;2023-12-20T10:00:41;101744.63;;;-7.33;82.04
74915;BME280;63475;45.140;-75.616;2023-12-20T10:04:54;101741.22;;;-7.32;82.45
74915;BME280;63475;45.140;-75.616;2023-12-20T10:07:02;101756.81;;;-7.29;82.17
74915;BME280;63475;45.140;-75.616;2023-12-20T10:09:09;101754.22;;;-7.29;82.64
74915;BME280;63475;45.140;-75.616;2023-12-20T10:11:12;101743.88;;;-7.29;82.30
74915;BME280;63475;45.140;-75.616;2023-12-20T10:13:15;101750.00;;;-7.25;83.05
74915;BME280;63475;45.140;-75.616;2023-12-20T10:15:18;101750.03;;;-7.24;82.89
74915;BME280;63475;45.140;-75.616;2023-12-20T10:17:21;101759.47;;;-7.26;82.23
74915;BME280;63475;45.140;-75.616;2023-12-20T10:19:24;101759.50;;;-7.24;82.65
74915;BME280;63475;45.140;-75.616;2023-12-20T10:21:28;101756.88;;;-7.26;82.29
74915;BME280;63475;45.140;-75.616;2023-12-20T10:23:31;101767.34;;;-7.21;82.46
74915;BME280;63475;45.140;-75.616;2023-12-20T10:25:34;101753.53;;;-7.22;82.38
74915;BME280;63475;45.140;-75.616;2023-12-20T10:27:37;101769.13;;;-7.19;82.43
74915;BME280;63475;45.140;-75.616;2023-12-20T10:29:39;101770.00;;;-7.18;82.96